Time;durP1;ratioP1;P1;durP2;ratioP2;P2;SDS_P1;SDS_P2;PMS_P1;PMS_P2;Temp;Humidity;BMP_temperature;BMP_pressure;BME280_temperature;BME280_humidity;BME280_pressure;Samples;Min_cycle;Max_cycle;Signal;HPM_P1;HPM_P2
2023/10/23 00:01:41;;;;;;;9.70;6.67;;;;;;;;;;5013666;28;20234;-70
2023/10/23 00:04:07;;;;;;;19.13;6.17;;;;;;;;;;5014934;28;20180;-70
2023/10/23 00:06:35;;;;;;;12.43;6.13;;;;;;;;;;5013710;28;20204;-70
2023/10/23 00:09:01;;;;;;;11.37;6.63;;;;;;;;;;5013828;28;20204;-70
2023/10/23 00:11:28;;;;;;;10.23;5.97;;;;;;;;;;5015210;28;20290;-71
2023/10/23 00:13:55;;;;;;;13.87;6.73;;;;;;;;;;5015084;28;20176;-70
2023/10/23 00:16:21;;;;;;;12.50;6.67;;;;;;;;;;5014510;28;20195;-70
2023/10/23 00:18:48;;;;;;;9.40;6.30;;;;;;;;;;5014751;28;20705;-70
2023/10/23 00:21:14;;;;;;;12.37;6.47;;;;;;;;;;5013547;28;20179;-70
2023/10/23 00:23:40;;;;;;;12.43;5.83;;;;;;;;;;5013363;28;20180;-70
2023/10/23 00:26:07;;;;;;;13.17;6.00;;;;;;;;;;5015152;28;20561;-70
2023/10/23 00:28:33;;;;;;;9.33;6.50;;;;;;;;;;5013625;28;20742;-70
2023/10/23 00:30:59;;;;;;;8.93;6.47;;;;;;;;;;5014771;28;20203;-70
2023/10/23 00:33:26;;;;;;;7.87;6.40;;;;;;;;;;5014570;28;20180;-69
2023/10/23 00:35:52;;;;;;;8.60;5.93;;;;;;;;;;5012990;28;20223;-70
2023/10/23 00:38:17;;;;;;;10.03;6.20;;;;;;;;;;5014854;28;20535;-70
2023/10/23 00:40:44;;;;;;;10.67;6.07;;;;;;;;;;5014364;28;20184;-70
2023/10/23 00:43:13;;;;;;;7.47;6.03;;;;;;;;;;5013089;28;20188;-70
2023/10/23 00:45:45;;;;;;;14.70;6.47;;;;;;;;;;5014480;28;20224;-70
2023/10/23 00:48:11;;;;;;;8.90;6.40;;;;;;;;;;5013391;28;20634;-70
2023/10/23 00:50:37;;;;;;;12.77;6.90;;;;;;;;;;5014506;28;20204;-70
2023/10/23 00:53:03;;;;;;;9.03;6.40;;;;;;;;;;5014105;28;20231;-70
2023/10/23 00:55:29;;;;;;;9.63;6.13;;;;;;;;;;5014304;28;20218;-70
2023/10/23 00:57:55;;;;;;;10.50;6.10;;;;;;;;;;5016654;28;20178;-71
2023/10/23 01:00:22;;;;;;;13.17;6.20;;;;;;;;;;5018380;28;20184;-71
2023/10/23 01:02:48;;;;;;;8.20;6.00;;;;;;;;;;5017075;28;20253;-71
2023/10/23 01:05:14;;;;;;;7.67;6.33;;;;;;;;;;5018009;28;20681;-70
2023/10/23 01:07:39;;;;;;;13.50;6.43;;;;;;;;;;5016923;28;20290;-70
2023/10/23 01:10:06;;;;;;;11.40;6.00;;;;;;;;;;5017903;28;20696;-70
2023/10/23 01:12:32;;;;;;;11.33;6.40;;;;;;;;;;5016803;28;20179;-70
2023/10/23 01:14:58;;;;;;;7.60;6.30;;;;;;;;;;5018197;28;20180;-69
2023/10/23 01:17:24;;;;;;;12.27;6.97;;;;;;;;;;5016778;28;20290;-70
2023/10/23 01:19:50;;;;;;;11.03;6.70;;;;;;;;;;5017986;28;20183;-70
2023/10/23 01:22:16;;;;;;;14.10;6.63;;;;;;;;;;5017642;28;20176;-70
2023/10/23 01:24:43;;;;;;;16.53;7.40;;;;;;;;;;5016545;28;20315;-70
2023/10/23 01:27:09;;;;;;;15.93;7.87;;;;;;;;;;5017593;28;20200;-70
2023/10/23 01:29:35;;;;;;;13.53;7.80;;;;;;;;;;5016502;28;20214;-70
2023/10/23 01:32:01;;;;;;;15.17;8.33;;;;;;;;;;5017216;28;20630;-70
2023/10/23 01:34:27;;;;;;;12.40;7.87;;;;;;;;;;5016153;28;20276;-70
2023/10/23 01:36:53;;;;;;;11.50;7.60;;;;;;;;;;5034798;28;20226;-70
2023/10/23 01:39:19;;;;;;;13.13;7.83;;;;;;;;;;5038229;28;20180;-70
2023/10/23 01:41:45;;;;;;;14.40;7.93;;;;;;;;;;5026996;28;20179;-71
2023/10/23 01:44:11;;;;;;;15.40;8.10;;;;;;;;;;5019066;28;20645;-71
2023/10/23 01:46:37;;;;;;;14.53;7.93;;;;;;;;;;5019059;28;20206;-70
2023/10/23 01:49:03;;;;;;;14.20;8.40;;;;;;;;;;5018974;28;20176;-71
2023/10/23 01:51:29;;;;;;;11.03;8.03;;;;;;;;;;5018447;28;20528;-70
2023/10/23 01:53:55;;;;;;;14.00;8.47;;;;;;;;;;5018281;28;20199;-70
2023/10/23 01:56:21;;;;;;;15.93;7.63;;;;;;;;;;5017331;28;20196;-70
2023/10/23 01:58:47;;;;;;;16.95;10.10;;;;;;;;;;5016502;28;20732;-71
2023/10/23 02:01:23;;;;;;;16.60;10.50;;;;;;;;;;5015099;28;20396;-71
2023/10/23 02:03:49;;;;;;;16.33;8.67;;;;;;;;;;5017378;28;20175;-71
2023/10/23 02:06:15;;;;;;;17.13;8.40;;;;;;;;;;5015976;28;20250;-70
2023/10/23 02:08:41;;;;;;;14.37;8.40;;;;;;;;;;5015143;28;20184;-71
2023/10/23 02:11:08;;;;;;;16.58;9.98;;;;;;;;;;5015923;28;20458;-70
2023/10/23 02:13:34;;;;;;;21.02;11.00;;;;;;;;;;5015877;28;20392;-70
2023/10/23 02:16:00;;;;;;;18.10;10.60;;;;;;;;;;5014660;28;20392;-71
2023/10/23 02:18:26;;;;;;;20.50;8.20;;;;;;;;;;5015453;28;20180;-70
2023/10/23 02:20:52;;;;;;;17.23;7.50;;;;;;;;;;5016798;28;20180;-70
2023/10/23 02:23:18;;;;;;;12.93;6.87;;;;;;;;;;5016814;28;20642;-69
2023/10/23 02:25:44;;;;;;;15.55;9.40;;;;;;;;;;5016009;28;20404;-69
2023/10/23 02:28:10;;;;;;;19.05;10.27;;;;;;;;;;5015732;28;20407;-69
2023/10/23 02:30:37;;;;;;;15.18;9.45;;;;;;;;;;5014029;28;20918;-69
2023/10/23 02:33:02;;;;;;;15.98;9.40;;;;;;;;;;5015643;28;20747;-69
2023/10/23 02:35:29;;;;;;;13.03;7.00;;;;;;;;;;5016153;28;20186;-69
2023/10/23 02:37:55;;;;;;;13.57;6.77;;;;;;;;;;5016809;28;20235;-69
2023/10/23 02:40:21;;;;;;;12.80;7.37;;;;;;;;;;5016314;28;20180;-69
2023/10/23 02:42:47;;;;;;;12.73;6.83;;;;;;;;;;5014859;28;20184;-69
2023/10/23 02:45:13;;;;;;;15.07;7.10;;;;;;;;;;5016528;28;20584;-70
2023/10/23 02:47:39;;;;;;;17.70;7.57;;;;;;;;;;5016042;28;20202;-71
2023/10/23 02:50:06;;;;;;;12.57;6.90;;;;;;;;;;5014429;28;20212;-71
2023/10/23 02:52:32;;;;;;;11.73;7.77;;;;;;;;;;5015232;28;20183;-69
2023/10/23 02:54:58;;;;;;;12.93;7.20;;;;;;;;;;5015939;28;20258;-69
2023/10/23 02:57:24;;;;;;;11.00;6.70;;;;;;;;;;5015713;28;20198;-69
2023/10/23 02:59:50;;;;;;;15.07;7.57;;;;;;;;;;5014905;28;20176;-69
2023/10/23 03:02:19;;;;;;;9.93;7.10;;;;;;;;;;5016063;28;20176;-69
2023/10/23 03:04:45;;;;;;;15.73;7.67;;;;;;;;;;5015933;28;20187;-69
2023/10/23 03:07:11;;;;;;;13.93;7.70;;;;;;;;;;5015782;28;20571;-69
2023/10/23 03:09:37;;;;;;;14.60;7.23;;;;;;;;;;5014657;28;20211;-69
2023/10/23 03:12:03;;;;;;;16.97;7.83;;;;;;;;;;5015630;28;20175;-69
2023/10/23 03:14:29;;;;;;;13.90;7.27;;;;;;;;;;5015870;28;20179;-69
2023/10/23 03:16:55;;;;;;;8.80;6.30;;;;;;;;;;5015564;28;20254;-69
2023/10/23 03:19:25;;;;;;;15.27;7.33;;;;;;;;;;5013462;28;20221;-69
2023/10/23 03:21:51;;;;;;;9.47;6.77;;;;;;;;;;5015523;28;20615;-69
2023/10/23 03:24:18;;;;;;;16.93;7.03;;;;;;;;;;5014168;28;20233;-70
2023/10/23 03:26:44;;;;;;;11.83;7.00;;;;;;;;;;5015490;28;20299;-69
2023/10/23 03:29:09;;;;;;;12.13;6.60;;;;;;;;;;5015292;28;20224;-69
2023/10/23 03:31:35;;;;;;;17.02;8.60;;;;;;;;;;5014717;28;20388;-69
2023/10/23 03:34:01;;;;;;;17.13;7.60;;;;;;;;;;5016273;28;20693;-69
2023/10/23 03:36:27;;;;;;;13.77;7.77;;;;;;;;;;5014989;28;20269;-69
2023/10/23 03:38:54;;;;;;;17.83;6.83;;;;;;;;;;5016386;28;20191;-68
2023/10/23 03:41:20;;;;;;;12.23;7.57;;;;;;;;;;5017169;28;20171;-69
2023/10/23 03:43:46;;;;;;;11.57;6.40;;;;;;;;;;5020951;28;20180;-69
2023/10/23 03:46:12;;;;;;;11.73;6.80;;;;;;;;;;5025357;28;20196;-69
2023/10/23 03:48:38;;;;;;;21.43;7.37;;;;;;;;;;5026302;28;20561;-69
2023/10/23 03:51:05;;;;;;;10.03;6.80;;;;;;;;;;5024318;28;20210;-69
2023/10/23 03:53:31;;;;;;;15.17;6.80;;;;;;;;;;5023391;28;20176;-69
2023/10/23 03:55:57;;;;;;;16.00;8.88;;;;;;;;;;5014678;28;20748;-69
2023/10/23 03:58:23;;;;;;;16.47;6.97;;;;;;;;;;5014114;28;20266;-69
2023/10/23 04:00:53;;;;;;;12.33;7.63;;;;;;;;;;5014004;28;20196;-70
2023/10/23 04:03:19;;;;;;;12.73;7.93;;;;;;;;;;5013890;28;20561;-69
2023/10/23 04:05:45;;;;;;;10.40;6.70;;;;;;;;;;5015543;28;20266;-69
2023/10/23 04:08:10;;;;;;;12.30;7.20;;;;;;;;;;5014431;28;20223;-69
2023/10/23 04:10:36;;;;;;;19.30;7.77;;;;;;;;;;5014003;28;20261;-69
2023/10/23 04:13:03;;;;;;;11.47;6.90;;;;;;;;;;5015171;28;20230;-69
2023/10/23 04:15:28;;;;;;;14.30;7.50;;;;;;;;;;5017076;28;20186;-70
2023/10/23 04:17:54;;;;;;;14.10;7.60;;;;;;;;;;5034375;28;20172;-70
2023/10/23 04:20:20;;;;;;;12.93;7.60;;;;;;;;;;5035325;28;20180;-70
2023/10/23 04:22:46;;;;;;;14.27;7.40;;;;;;;;;;5017776;28;20199;-69
2023/10/23 04:25:12;;;;;;;22.10;8.70;;;;;;;;;;5015382;28;20180;-70
2023/10/23 04:27:38;;;;;;;9.70;7.50;;;;;;;;;;5013528;28;20298;-70
2023/10/23 04:30:04;;;;;;;15.27;7.73;;;;;;;;;;5015013;28;20199;-69
2023/10/23 04:32:30;;;;;;;14.00;7.40;;;;;;;;;;5013581;28;20554;-70
2023/10/23 04:34:56;;;;;;;14.37;8.23;;;;;;;;;;5015249;28;20207;-70
2023/10/23 04:37:22;;;;;;;13.50;8.73;;;;;;;;;;5015130;28;20222;-70
2023/10/23 04:39:48;;;;;;;11.27;7.67;;;;;;;;;;5015487;28;20183;-69
2023/10/23 04:42:14;;;;;;;12.93;8.10;;;;;;;;;;5030363;22;20285;-69
2023/10/23 04:44:40;;;;;;;18.80;10.40;;;;;;;;;;5010744;28;20400;-71
2023/10/23 04:47:06;;;;;;;16.65;10.30;;;;;;;;;;5010554;28;20883;-70
2023/10/23 04:49:32;;;;;;;12.10;8.27;;;;;;;;;;5013193;28;20703;-69
2023/10/23 04:51:58;;;;;;;14.63;8.87;;;;;;;;;;5011772;28;20203;-69
2023/10/23 04:54:24;;;;;;;13.53;8.47;;;;;;;;;;5013144;28;20245;-69
2023/10/23 04:56:50;;;;;;;18.00;9.00;;;;;;;;;;5013073;28;20187;-69
2023/10/23 04:59:16;;;;;;;11.83;8.47;;;;;;;;;;5012694;28;20254;-69
2023/10/23 05:01:42;;;;;;;14.03;9.17;;;;;;;;;;5011523;28;20184;-71
2023/10/23 05:04:08;;;;;;;17.70;9.70;;;;;;;;;;5012885;28;20179;-69
2023/10/23 05:06:34;;;;;;;16.00;8.60;;;;;;;;;;5011624;28;20208;-70
2023/10/23 05:09:00;;;;;;;15.90;9.63;;;;;;;;;;5011881;28;20179;-70
2023/10/23 05:11:26;;;;;;;15.90;9.47;;;;;;;;;;5012653;28;20176;-70
2023/10/23 05:13:52;;;;;;;18.87;9.33;;;;;;;;;;5011312;28;20200;-70
2023/10/23 05:16:18;;;;;;;18.20;10.30;;;;;;;;;;5011517;28;20186;-70
2023/10/23 05:18:44;;;;;;;14.83;9.33;;;;;;;;;;5011771;28;20184;-68
2023/10/23 05:21:10;;;;;;;15.47;9.80;;;;;;;;;;5011581;28;20187;-68
2023/10/23 05:23:37;;;;;;;12.93;8.93;;;;;;;;;;5012760;28;20283;-68
2023/10/23 05:26:03;;;;;;;13.70;8.73;;;;;;;;;;5011168;28;20234;-68
2023/10/23 05:28:29;;;;;;;15.63;9.07;;;;;;;;;;5012449;28;20188;-68
2023/10/23 05:30:55;;;;;;;18.93;11.93;;;;;;;;;;5012226;28;20685;-68
2023/10/23 05:33:21;;;;;;;17.67;11.47;;;;;;;;;;5012323;28;20258;-68
2023/10/23 05:35:47;;;;;;;14.03;10.43;;;;;;;;;;5011070;28;20191;-68
2023/10/23 05:38:13;;;;;;;15.57;10.43;;;;;;;;;;5011338;28;20180;-69
2023/10/23 05:40:39;;;;;;;18.90;10.03;;;;;;;;;;5012656;28;20275;-69
2023/10/23 05:43:05;;;;;;;20.60;11.07;;;;;;;;;;5013178;28;20238;-69
2023/10/23 05:45:31;;;;;;;18.17;11.27;;;;;;;;;;5016402;28;20229;-68
2023/10/23 05:47:57;;;;;;;17.60;11.30;;;;;;;;;;5016323;28;20634;-68
2023/10/23 05:50:23;;;;;;;17.80;12.03;;;;;;;;;;5016053;28;20665;-68
2023/10/23 05:52:49;;;;;;;19.30;12.30;;;;;;;;;;5016375;28;20231;-68
2023/10/23 05:55:15;;;;;;;17.27;10.93;;;;;;;;;;5014818;28;20206;-68
2023/10/23 05:57:41;;;;;;;17.33;11.67;;;;;;;;;;5015878;28;20206;-68
2023/10/23 06:00:10;;;;;;;23.43;12.00;;;;;;;;;;5015767;28;20180;-69
2023/10/23 06:02:36;;;;;;;17.77;12.10;;;;;;;;;;5014391;28;20208;-68
2023/10/23 06:05:03;;;;;;;19.40;14.17;;;;;;;;;;5014330;28;20717;-69
2023/10/23 06:07:29;;;;;;;18.17;12.40;;;;;;;;;;5014118;28;20187;-68
2023/10/23 06:09:56;;;;;;;19.60;12.80;;;;;;;;;;5013963;28;20200;-69
2023/10/23 06:12:22;;;;;;;16.17;12.37;;;;;;;;;;5015578;28;20192;-69
2023/10/23 06:14:48;;;;;;;17.40;11.40;;;;;;;;;;5015787;28;20263;-69
2023/10/23 06:17:14;;;;;;;18.43;11.70;;;;;;;;;;5014232;28;20179;-68
2023/10/23 06:19:40;;;;;;;18.10;11.30;;;;;;;;;;5014522;28;20179;-68
2023/10/23 06:22:06;;;;;;;17.40;11.17;;;;;;;;;;5015490;28;20203;-68
2023/10/23 06:24:32;;;;;;;19.67;12.33;;;;;;;;;;5015540;28;20184;-69
2023/10/23 06:26:58;;;;;;;23.67;13.60;;;;;;;;;;5015606;28;20199;-68
2023/10/23 06:29:24;;;;;;;19.97;12.13;;;;;;;;;;5014191;28;20204;-68
2023/10/23 06:31:50;;;;;;;21.20;12.00;;;;;;;;;;5015953;28;20255;-68
2023/10/23 06:34:16;;;;;;;22.33;12.30;;;;;;;;;;5015658;28;20234;-69
2023/10/23 06:36:43;;;;;;;18.10;12.20;;;;;;;;;;5015138;28;20263;-69
2023/10/23 06:39:09;;;;;;;20.97;11.90;;;;;;;;;;5014921;28;20172;-70
2023/10/23 06:41:35;;;;;;;23.80;12.53;;;;;;;;;;5014866;28;20544;-69
2023/10/23 06:44:01;;;;;;;22.47;12.10;;;;;;;;;;5013559;28;20210;-74
2023/10/23 06:46:26;;;;;;;25.17;12.10;;;;;;;;;;5015382;28;20246;-68
2023/10/23 06:48:52;;;;;;;23.43;12.53;;;;;;;;;;5014774;28;20171;-68
2023/10/23 06:51:18;;;;;;;18.13;12.70;;;;;;;;;;5014619;28;20206;-68
2023/10/23 06:53:44;;;;;;;19.17;11.97;;;;;;;;;;5014483;28;20207;-68
2023/10/23 06:56:10;;;;;;;18.40;11.07;;;;;;;;;;5013414;28;20252;-68
2023/10/23 06:58:36;;;;;;;22.40;12.33;;;;;;;;;;5013432;28;20211;-68
2023/10/23 07:01:09;;;;;;;23.60;12.03;;;;;;;;;;5014616;28;20703;-68
2023/10/23 07:03:38;;;;;;;20.83;12.10;;;;;;;;;;5013286;28;20341;-68
2023/10/23 07:06:05;;;;;;;21.10;12.00;;;;;;;;;;5014358;28;20180;-68
2023/10/23 07:08:31;;;;;;;21.67;12.13;;;;;;;;;;5013156;28;20183;-68
2023/10/23 07:10:57;;;;;;;19.73;11.60;;;;;;;;;;5014289;28;20203;-68
2023/10/23 07:13:23;;;;;;;21.13;12.60;;;;;;;;;;5012933;28;20696;-68
2023/10/23 07:15:50;;;;;;;23.23;11.97;;;;;;;;;;5012913;28;20172;-68
2023/10/23 07:18:17;;;;;;;16.63;11.40;;;;;;;;;;5014195;28;20646;-68
2023/10/23 07:20:52;;;;;;;21.63;11.57;;;;;;;;;;5012785;28;20180;-68
2023/10/23 07:23:18;;;;;;;17.77;10.60;;;;;;;;;;5014460;28;20237;-68
2023/10/23 07:25:44;;;;;;;20.77;11.00;;;;;;;;;;5014033;28;20179;-68
2023/10/23 07:28:10;;;;;;;18.67;9.97;;;;;;;;;;5012667;28;20184;-68
2023/10/23 07:30:36;;;;;;;20.73;9.57;;;;;;;;;;5013973;28;20207;-68
2023/10/23 07:33:02;;;;;;;17.47;9.70;;;;;;;;;;5014035;28;20203;-68
2023/10/23 07:35:28;;;;;;;18.73;9.10;;;;;;;;;;5013834;28;20180;-68
2023/10/23 07:37:54;;;;;;;15.77;9.67;;;;;;;;;;5014400;28;20187;-68
2023/10/23 07:40:21;;;;;;;26.10;18.30;;;;;;;;;;5012726;28;20650;-68
2023/10/23 07:42:47;;;;;;;21.90;10.33;;;;;;;;;;5014266;28;20226;-68
2023/10/23 07:45:13;;;;;;;17.77;9.57;;;;;;;;;;5014071;28;20176;-67
2023/10/23 07:47:39;;;;;;;19.23;9.50;;;;;;;;;;5012721;28;20219;-68
2023/10/23 07:50:05;;;;;;;17.03;9.10;;;;;;;;;;5014019;28;20199;-69
2023/10/23 07:52:32;;;;;;;16.10;10.30;;;;;;;;;;5012434;28;20627;-68
2023/10/23 07:54:59;;;;;;;17.90;10.30;;;;;;;;;;5014306;28;20211;-68
2023/10/23 07:57:25;;;;;;;19.50;10.73;;;;;;;;;;5012325;28;20553;-68
2023/10/23 07:59:51;;;;;;;18.77;10.27;;;;;;;;;;5013483;28;20194;-69
2023/10/23 08:02:17;;;;;;;13.67;9.13;;;;;;;;;;5013260;28;20199;-68
2023/10/23 08:04:43;;;;;;;14.07;9.17;;;;;;;;;;5013942;28;20183;-68
2023/10/23 08:07:10;;;;;;;14.20;8.03;;;;;;;;;;5012742;28;20219;-68
2023/10/23 08:09:36;;;;;;;10.07;8.20;;;;;;;;;;5012001;28;20234;-68
2023/10/23 08:12:02;;;;;;;12.27;7.90;;;;;;;;;;5013397;28;20200;-66
2023/10/23 08:14:28;;;;;;;12.03;7.77;;;;;;;;;;5013144;28;20634;-66
2023/10/23 08:16:54;;;;;;;11.47;7.33;;;;;;;;;;5011768;28;20175;-66
2023/10/23 08:19:20;;;;;;;10.33;6.30;;;;;;;;;;5011804;28;20180;-67
2023/10/23 08:21:46;;;;;;;9.30;6.80;;;;;;;;;;5011681;28;20326;-67
2023/10/23 08:24:13;;;;;;;11.87;5.90;;;;;;;;;;5013002;28;20171;-67
2023/10/23 08:26:39;;;;;;;13.83;7.60;;;;;;;;;;5011735;28;20187;-67
2023/10/23 08:29:05;;;;;;;12.47;7.03;;;;;;;;;;5013085;28;20226;-68
2023/10/23 08:31:31;;;;;;;11.17;7.27;;;;;;;;;;5012851;28;20618;-68
2023/10/23 08:33:57;;;;;;;10.47;7.03;;;;;;;;;;5013011;28;20257;-68
2023/10/23 08:36:23;;;;;;;11.83;5.70;;;;;;;;;;5011467;28;20266;-69
2023/10/23 08:38:49;;;;;;;11.50;7.03;;;;;;;;;;5013116;28;20172;-68
2023/10/23 08:41:15;;;;;;;11.97;6.37;;;;;;;;;;5012796;28;20184;-68
2023/10/23 08:43:41;;;;;;;12.97;5.93;;;;;;;;;;5012786;28;20215;-68
2023/10/23 08:46:10;;;;;;;11.00;5.53;;;;;;;;;;5011411;28;20238;-67
2023/10/23 08:48:37;;;;;;;8.73;5.13;;;;;;;;;;5011446;28;20604;-67
2023/10/23 08:51:04;;;;;;;6.80;5.20;;;;;;;;;;5011299;28;20203;-68
2023/10/23 08:53:34;;;;;;;13.07;5.10;;;;;;;;;;5011236;28;20277;-67
2023/10/23 08:56:03;;;;;;;9.73;5.43;;;;;;;;;;5011305;28;20184;-68
2023/10/23 08:58:30;;;;;;;10.70;5.10;;;;;;;;;;5012608;28;20172;-68
2023/10/23 09:00:56;;;;;;;10.43;5.47;;;;;;;;;;5012611;28;20180;-68
2023/10/23 09:03:23;;;;;;;8.33;4.97;;;;;;;;;;5011253;28;20204;-68
2023/10/23 09:05:49;;;;;;;9.83;5.63;;;;;;;;;;5012675;28;20267;-68
2023/10/23 09:08:17;;;;;;;8.07;4.93;;;;;;;;;;5011129;28;20215;-67
2023/10/23 09:11:03;;;;;;;7.73;4.33;;;;;;;;;;5012415;28;20582;-68
2023/10/23 09:13:33;;;;;;;10.43;4.40;;;;;;;;;;5012481;28;20192;-68
2023/10/23 09:16:00;;;;;;;6.77;4.17;;;;;;;;;;5013000;28;20198;-67
2023/10/23 09:18:26;;;;;;;7.87;4.10;;;;;;;;;;5013939;28;20234;-68
2023/10/23 09:20:51;;;;;;;10.77;4.47;;;;;;;;;;5015146;28;20191;-68
2023/10/23 09:23:17;;;;;;;7.50;4.03;;;;;;;;;;5014907;28;20208;-67
2023/10/23 09:25:43;;;;;;;7.67;3.90;;;;;;;;;;5015029;28;20270;-67
2023/10/23 09:28:13;;;;;;;6.60;3.50;;;;;;;;;;5016370;28;20203;-67
2023/10/23 09:30:39;;;;;;;10.47;3.70;;;;;;;;;;5016457;28;20203;-68
2023/10/23 09:33:06;;;;;;;9.63;3.33;;;;;;;;;;5014797;28;20196;-68
2023/10/23 09:35:33;;;;;;;9.37;3.63;;;;;;;;;;5016126;28;20176;-67
2023/10/23 09:37:59;;;;;;;8.50;3.17;;;;;;;;;;5016232;28;20258;-68
2023/10/23 09:40:25;;;;;;;7.27;3.37;;;;;;;;;;5014671;28;20249;-67
2023/10/23 09:42:51;;;;;;;13.13;5.10;;;;;;;;;;5014497;28;20227;-67
2023/10/23 09:45:17;;;;;;;11.80;5.10;;;;;;;;;;5014545;28;20194;-67
2023/10/23 09:47:46;;;;;;;16.97;7.20;;;;;;;;;;5015929;28;20650;-67
2023/10/23 09:50:12;;;;;;;19.07;7.17;;;;;;;;;;5016028;28;20290;-67
2023/10/23 09:52:40;;;;;;;13.63;6.10;;;;;;;;;;5015162;28;20204;-68
2023/10/23 09:55:09;;;;;;;11.60;4.77;;;;;;;;;;5016050;28;20183;-67
2023/10/23 09:57:39;;;;;;;10.53;3.80;;;;;;;;;;5016589;28;20582;-67
2023/10/23 10:00:13;;;;;;;10.10;3.80;;;;;;;;;;5014428;28;20218;-68
2023/10/23 10:02:39;;;;;;;10.03;3.43;;;;;;;;;;5014484;28;20210;-67
2023/10/23 10:05:09;;;;;;;6.50;3.43;;;;;;;;;;5014895;28;20546;-68
2023/10/23 10:07:45;;;;;;;8.40;3.63;;;;;;;;;;5015801;28;20234;-68
2023/10/23 10:10:13;;;;;;;8.33;4.57;;;;;;;;;;5015985;28;20195;-67
2023/10/23 10:12:40;;;;;;;8.97;3.80;;;;;;;;;;5014211;28;20298;-68
2023/10/23 10:15:12;;;;;;;8.70;3.87;;;;;;;;;;5015310;28;20527;-68
2023/10/23 10:17:39;;;;;;;8.43;4.00;;;;;;;;;;5015650;28;20534;-67
2023/10/23 10:20:08;;;;;;;5.87;3.70;;;;;;;;;;5015421;28;20608;-68
2023/10/23 10:22:37;;;;;;;9.17;3.83;;;;;;;;;;5013977;28;20196;-67
2023/10/23 10:25:05;;;;;;;8.77;3.77;;;;;;;;;;5015258;28;20237;-67
2023/10/23 10:27:31;;;;;;;8.70;4.20;;;;;;;;;;5013749;28;20279;-67
2023/10/23 10:30:04;;;;;;;9.53;3.83;;;;;;;;;;5014753;28;20312;-67
2023/10/23 10:32:31;;;;;;;7.03;4.10;;;;;;;;;;5014988;28;20187;-68
2023/10/23 10:34:59;;;;;;;9.70;4.23;;;;;;;;;;5013714;28;20559;-68
2023/10/23 10:37:27;;;;;;;10.60;3.83;;;;;;;;;;5015232;28;20258;-68
2023/10/23 10:40:03;;;;;;;8.80;3.53;;;;;;;;;;5015353;28;20207;-67
2023/10/23 10:42:30;;;;;;;6.43;3.47;;;;;;;;;;5014894;28;20207;-67
2023/10/23 10:44:59;;;;;;;11.13;3.70;;;;;;;;;;5013500;28;20187;-67
2023/10/23 10:47:42;;;;;;;15.37;4.60;;;;;;;;;;5014954;28;20192;-67
2023/10/23 10:50:10;;;;;;;13.83;4.10;;;;;;;;;;5013545;28;20276;-67
2023/10/23 10:52:36;;;;;;;6.33;3.33;;;;;;;;;;5014866;28;20707;-67
2023/10/23 10:55:04;;;;;;;7.30;3.27;;;;;;;;;;5014905;28;20258;-67
2023/10/23 10:57:30;;;;;;;7.37;3.53;;;;;;;;;;5015207;28;20198;-66
2023/10/23 10:59:58;;;;;;;8.23;3.80;;;;;;;;;;5013227;28;20184;-67
2023/10/23 11:02:24;;;;;;;9.87;3.83;;;;;;;;;;5014618;28;20200;-67
2023/10/23 11:04:50;;;;;;;10.87;3.63;;;;;;;;;;5014945;28;20226;-67
2023/10/23 11:07:23;;;;;;;8.63;3.67;;;;;;;;;;5014272;28;20190;-67
2023/10/23 11:09:49;;;;;;;9.27;3.40;;;;;;;;;;5014240;28;20703;-67
2023/10/23 11:12:17;;;;;;;6.57;3.57;;;;;;;;;;5038627;22;20207;-70
2023/10/23 11:14:43;;;;;;;9.30;3.50;;;;;;;;;;5014159;28;20184;-68
2023/10/23 11:17:09;;;;;;;9.63;3.70;;;;;;;;;;5015236;28;20184;-69
2023/10/23 11:19:35;;;;;;;6.37;3.13;;;;;;;;;;5015277;28;20180;-69
2023/10/23 11:22:11;;;;;;;9.83;3.60;;;;;;;;;;5015004;28;20184;-69
2023/10/23 11:24:37;;;;;;;9.27;3.60;;;;;;;;;;5015487;28;20259;-69
2023/10/23 11:27:09;;;;;;;10.67;3.40;;;;;;;;;;5013751;28;20187;-68
2023/10/23 11:29:39;;;;;;;7.13;3.37;;;;;;;;;;5015315;28;20200;-70
2023/10/23 11:32:06;;;;;;;10.37;3.20;;;;;;;;;;5015063;28;20556;-68
2023/10/23 11:34:32;;;;;;;6.10;2.90;;;;;;;;;;5013882;28;20187;-68
2023/10/23 11:37:02;;;;;;;7.87;2.97;;;;;;;;;;5015054;28;20179;-70
2023/10/23 11:39:31;;;;;;;9.70;3.83;;;;;;;;;;5013558;28;20566;-68
2023/10/23 11:41:57;;;;;;;5.10;3.20;;;;;;;;;;5012862;28;20200;-71
2023/10/23 11:44:24;;;;;;;5.40;2.83;;;;;;;;;;5014914;28;20188;-68
2023/10/23 11:46:50;;;;;;;4.67;3.00;;;;;;;;;;5015025;28;20176;-70
2023/10/23 11:49:19;;;;;;;6.93;3.00;;;;;;;;;;5013562;28;20180;-69
2023/10/23 11:51:46;;;;;;;8.90;2.83;;;;;;;;;;5014687;28;20631;-69
2023/10/23 11:54:12;;;;;;;6.87;2.97;;;;;;;;;;5013719;28;20204;-69
2023/10/23 11:56:38;;;;;;;9.13;3.20;;;;;;;;;;5013597;28;20219;-69
2023/10/23 11:59:05;;;;;;;13.17;6.83;;;;;;;;;;5014673;28;20179;-69
2023/10/23 12:01:31;;;;;;;7.70;3.30;;;;;;;;;;5013261;28;20234;-69
2023/10/23 12:03:57;;;;;;;5.40;2.80;;;;;;;;;;5015448;28;20561;-70
2023/10/23 12:06:23;;;;;;;6.27;3.03;;;;;;;;;;5014582;28;20186;-69
2023/10/23 12:08:49;;;;;;;8.67;3.47;;;;;;;;;;5013298;28;20198;-70
2023/10/23 12:11:15;;;;;;;4.50;2.80;;;;;;;;;;5013158;28;20204;-69
2023/10/23 12:13:41;;;;;;;4.03;3.50;;;;;;;;;;5014135;28;20318;-69
2023/10/23 12:16:09;;;;;;;8.27;3.77;;;;;;;;;;5013983;28;20180;-69
2023/10/23 12:18:35;;;;;;;4.47;3.27;;;;;;;;;;5028725;28;20176;-69
2023/10/23 12:21:05;;;;;;;6.20;3.57;;;;;;;;;;5028678;28;20191;-69
2023/10/23 12:23:30;;;;;;;5.90;3.47;;;;;;;;;;5018760;28;20580;-69
2023/10/23 12:25:57;;;;;;;6.00;3.60;;;;;;;;;;5014786;28;20184;-69
2023/10/23 12:28:23;;;;;;;7.90;3.60;;;;;;;;;;5015240;28;20179;-69
2023/10/23 12:30:49;;;;;;;7.70;4.00;;;;;;;;;;5013290;28;20416;-69
2023/10/23 12:33:15;;;;;;;5.70;3.40;;;;;;;;;;5013594;28;20195;-69
2023/10/23 12:35:41;;;;;;;8.50;3.83;;;;;;;;;;5013693;28;20178;-70
2023/10/23 12:38:07;;;;;;;8.33;3.63;;;;;;;;;;5014420;28;20712;-69
2023/10/23 12:40:33;;;;;;;7.47;4.07;;;;;;;;;;5014189;28;20184;-70
2023/10/23 12:42:59;;;;;;;11.50;4.03;;;;;;;;;;5014281;28;20662;-69
2023/10/23 12:45:25;;;;;;;7.00;3.63;;;;;;;;;;5013876;28;20187;-69
2023/10/23 12:47:51;;;;;;;7.23;3.60;;;;;;;;;;5014183;28;20188;-69
2023/10/23 12:50:17;;;;;;;5.30;3.37;;;;;;;;;;5014157;28;20208;-69
2023/10/23 12:52:43;;;;;;;7.40;3.93;;;;;;;;;;5017784;28;20290;-70
2023/10/23 12:55:09;;;;;;;4.83;3.20;;;;;;;;;;5021635;28;20188;-70
2023/10/23 12:57:35;;;;;;;5.93;3.50;;;;;;;;;;5020235;28;20182;-70
2023/10/23 13:00:01;;;;;;;4.50;2.87;;;;;;;;;;5020319;28;20180;-70
2023/10/23 13:02:27;;;;;;;5.83;3.40;;;;;;;;;;5019018;28;20210;-70
2023/10/23 13:04:53;;;;;;;8.40;3.13;;;;;;;;;;5020900;28;20182;-70
2023/10/23 13:07:19;;;;;;;4.53;2.70;;;;;;;;;;5020527;28;20643;-70
2023/10/23 13:09:45;;;;;;;3.87;2.77;;;;;;;;;;5020233;28;20206;-70
2023/10/23 13:12:11;;;;;;;4.43;3.10;;;;;;;;;;5020676;28;20230;-70
2023/10/23 13:14:38;;;;;;;8.27;3.23;;;;;;;;;;5019677;28;20270;-69
2023/10/23 13:17:04;;;;;;;6.10;2.40;;;;;;;;;;5022312;28;20207;-70
2023/10/23 13:19:30;;;;;;;4.13;2.87;;;;;;;;;;5020280;28;20179;-69
2023/10/23 13:21:56;;;;;;;8.00;2.60;;;;;;;;;;5019169;28;20187;-70
2023/10/23 13:24:22;;;;;;;6.20;2.70;;;;;;;;;;5019679;28;20208;-69
2023/10/23 13:26:48;;;;;;;3.13;2.10;;;;;;;;;;5022642;28;20737;-68
2023/10/23 13:29:14;;;;;;;6.63;2.60;;;;;;;;;;5019953;28;20192;-68
2023/10/23 13:31:40;;;;;;;4.00;2.30;;;;;;;;;;5019880;28;20215;-68
2023/10/23 13:34:06;;;;;;;4.83;2.47;;;;;;;;;;5020265;28;20191;-70
2023/10/23 13:36:32;;;;;;;5.10;2.53;;;;;;;;;;5019853;28;20231;-70
2023/10/23 13:38:59;;;;;;;5.03;3.13;;;;;;;;;;5019382;28;20175;-69
2023/10/23 13:41:25;;;;;;;5.70;2.90;;;;;;;;;;5019980;28;20175;-69
2023/10/23 13:43:51;;;;;;;4.50;2.80;;;;;;;;;;5017978;28;20238;-69
2023/10/23 13:46:18;;;;;;;3.27;2.87;;;;;;;;;;5019246;28;20662;-69
2023/10/23 13:48:44;;;;;;;4.23;3.00;;;;;;;;;;5018062;28;20194;-69
2023/10/23 13:51:10;;;;;;;7.47;2.70;;;;;;;;;;5019412;28;20207;-69
2023/10/23 13:53:36;;;;;;;4.47;2.47;;;;;;;;;;5018016;28;20200;-69
2023/10/23 13:56:02;;;;;;;6.83;3.10;;;;;;;;;;5019313;28;20258;-69
2023/10/23 13:58:28;;;;;;;4.00;2.10;;;;;;;;;;5019375;28;20258;-69
2023/10/23 14:00:54;;;;;;;2.60;2.17;;;;;;;;;;5019230;28;20191;-69
2023/10/23 14:03:20;;;;;;;3.67;2.10;;;;;;;;;;5018240;28;20203;-69
2023/10/23 14:05:46;;;;;;;2.33;2.10;;;;;;;;;;5014541;28;20266;-69
2023/10/23 14:08:12;;;;;;;4.30;2.30;;;;;;;;;;5014860;28;20187;-69
2023/10/23 14:10:39;;;;;;;5.50;2.40;;;;;;;;;;5016156;28;20731;-69
2023/10/23 14:13:05;;;;;;;4.77;2.43;;;;;;;;;;5015943;28;20265;-69
2023/10/23 14:15:32;;;;;;;3.97;2.10;;;;;;;;;;5014713;28;20275;-69
2023/10/23 14:17:57;;;;;;;8.87;2.27;;;;;;;;;;5014768;28;20283;-67
2023/10/23 14:20:23;;;;;;;3.97;1.63;;;;;;;;;;5016002;28;20263;-68
2023/10/23 14:22:49;;;;;;;3.30;1.57;;;;;;;;;;5015916;28;20227;-68
2023/10/23 14:25:15;;;;;;;7.10;2.00;;;;;;;;;;5014824;28;20180;-68
2023/10/23 14:27:41;;;;;;;2.50;1.70;;;;;;;;;;5014744;28;20219;-68
2023/10/23 14:30:08;;;;;;;3.40;1.77;;;;;;;;;;5014572;28;20246;-68